Time;durP1;ratioP1;P1;durP2;ratioP2;P2;SDS_P1;SDS_P2;PMS_P1;PMS_P2;Temp;Humidity;BMP_temperature;BMP_pressure;BME280_temperature;BME280_humidity;BME280_pressure;Samples;Min_cycle;Max_cycle;Signal;HPM_P1;HPM_P2
2023/04/01 00:01:37;;;;;;;13.10;7.58;;;;;;;7.68;60.22;99728.10;1700456;84;21223;-57
2023/04/01 00:04:43;;;;;;;16.65;7.45;;;;;;;7.67;60.38;99727.77;1700573;82;21381;-58
2023/04/01 00:07:49;;;;;;;19.92;8.08;;;;;;;7.67;60.46;99723.69;1700428;84;21215;-57
2023/04/01 00:10:54;;;;;;;21.15;8.73;;;;;;;7.66;60.56;99725.55;1696060;83;21192;-57
2023/04/01 00:14:00;;;;;;;26.00;9.53;;;;;;;7.66;60.65;99728.81;1700420;83;21200;-57
2023/04/01 00:17:08;;;;;;;18.50;8.78;;;;;;;7.66;60.71;99723.36;1675233;84;21259;-57
2023/04/01 00:20:16;;;;;;;19.32;8.20;;;;;;;7.64;60.87;99727.63;1693045;83;21188;-57
2023/04/01 00:23:22;;;;;;;12.80;7.12;;;;;;;7.64;60.97;99731.17;1692917;83;21195;-57
2023/04/01 00:26:27;;;;;;;15.10;8.60;;;;;;;7.65;61.06;99732.03;1692882;83;21282;-58
2023/04/01 00:29:33;;;;;;;15.25;8.75;;;;;;;7.63;61.14;99734.94;1692518;82;21247;-58
2023/04/01 00:32:40;;;;;;;19.00;9.65;;;;;;;7.66;61.23;99745.16;1690501;84;21385;-58
2023/04/01 00:35:46;;;;;;;19.82;9.40;;;;;;;7.63;61.26;99734.61;1690393;84;21354;-58
2023/04/01 00:38:53;;;;;;;20.48;9.13;;;;;;;7.61;61.35;99730.70;1690297;84;21188;-58
2023/04/01 00:41:58;;;;;;;18.57;9.80;;;;;;;7.59;61.43;99735.45;1690666;83;21236;-57
2023/04/01 00:45:04;;;;;;;20.10;9.00;;;;;;;7.59;61.49;99734.92;1690746;83;21192;-56
2023/04/01 00:48:15;;;;;;;18.55;8.85;;;;;;;7.57;61.55;99724.73;1690671;84;21220;-57
2023/04/01 00:51:29;;;;;;;20.90;9.30;;;;;;;7.55;61.62;99723.19;1685349;84;21243;-57
2023/04/01 00:54:36;;;;;;;21.23;9.40;;;;;;;7.48;61.70;99721.66;1690517;83;21725;-57
2023/04/01 00:57:44;;;;;;;16.45;8.35;;;;;;;7.46;61.88;99721.02;1690507;84;21240;-58
2023/04/01 01:00:50;;;;;;;18.42;8.60;;;;;;;7.44;61.96;99720.83;1690671;83;21192;-58
2023/04/01 01:03:58;;;;;;;18.07;8.90;;;;;;;7.43;62.08;99728.16;1690544;83;21374;-58
2023/04/01 01:07:17;;;;;;;22.07;8.93;;;;;;;7.45;62.25;99723.38;1690480;84;21405;-57
2023/04/01 01:10:33;;;;;;;15.08;7.37;;;;;;;7.46;62.37;99726.45;1690298;83;21184;-57
2023/04/01 01:14:02;;;;;;;19.50;8.18;;;;;;;7.47;62.43;99736.81;1690104;84;21251;-57
2023/04/01 01:17:13;;;;;;;15.40;7.40;;;;;;;7.47;62.54;99736.81;1690971;83;21373;-58
2023/04/01 01:20:44;;;;;;;17.62;6.75;;;;;;;7.49;62.63;99737.00;1695131;84;21307;-57
2023/04/01 01:24:02;;;;;;;15.43;7.83;;;;;;;7.48;62.71;99731.73;1658479;86;21237;-57
2023/04/01 01:27:19;;;;;;;18.90;7.62;;;;;;;7.47;62.80;99737.67;1695164;84;21216;-57
2023/04/01 01:30:52;;;;;;;14.10;6.92;;;;;;;7.48;62.91;99736.64;1695495;82;21223;-57
2023/04/01 01:34:36;;;;;;;20.32;7.42;;;;;;;7.49;62.99;99727.47;1712775;82;21248;-57
2023/04/01 01:37:42;;;;;;;14.58;6.72;;;;;;;7.48;63.00;99729.01;1683121;84;21596;-57
2023/04/01 01:40:57;;;;;;;16.70;7.35;;;;;;;7.46;63.17;99726.95;1671114;84;21264;-56
2023/04/01 01:43:59;;;;;;;13.08;6.55;;;;;;;7.47;63.27;99727.28;1671129;84;21231;-57
2023/04/01 01:47:05;;;;;;;15.10;7.47;;;;;;;7.48;63.33;99727.11;1670909;86;21243;-56
2023/04/01 01:50:12;;;;;;;15.30;6.90;;;;;;;7.48;63.36;99728.47;1671074;84;21346;-58
2023/04/01 01:53:19;;;;;;;17.17;6.92;;;;;;;7.42;63.31;99722.36;1649259;86;21278;-57
2023/04/01 01:56:27;;;;;;;14.23;6.83;;;;;;;7.37;63.42;99727.46;1671047;86;21426;-57
2023/04/01 01:59:33;;;;;;;11.80;7.25;;;;;;;7.36;63.54;99725.78;1670907;85;21264;-58
2023/04/01 02:02:41;;;;;;;10.93;6.22;;;;;;;7.33;63.58;99730.70;1671107;84;21271;-58
2023/04/01 02:05:46;;;;;;;13.08;6.87;;;;;;;7.30;63.63;99733.77;1670954;84;21244;-57
2023/04/01 02:09:07;;;;;;;13.88;6.85;;;;;;;7.28;63.76;99729.86;1671069;84;21227;-56
2023/04/01 02:12:18;;;;;;;13.60;6.67;;;;;;;7.27;63.87;99728.67;1670960;84;21255;-56
2023/04/01 02:15:24;;;;;;;16.65;6.90;;;;;;;7.26;64.00;99727.81;1670986;84;21220;-57
2023/04/01 02:18:24;;;;;;;15.65;7.05;;;;;;;7.29;64.21;99731.55;1671121;86;21283;-57
2023/04/01 02:21:34;;;;;;;17.40;7.28;;;;;;;7.32;64.27;99729.88;1671036;84;21247;-57
2023/04/01 02:24:41;;;;;;;13.70;7.17;;;;;;;7.30;64.23;99736.00;1670910;86;21335;-57
2023/04/01 02:27:49;;;;;;;16.97;6.97;;;;;;;7.32;64.38;99737.19;1671017;86;21232;-56
2023/04/01 02:30:55;;;;;;;16.95;7.10;;;;;;;7.36;64.49;99738.53;1670924;83;21257;-56
2023/04/01 02:34:04;;;;;;;12.73;6.90;;;;;;;7.40;64.66;99735.29;1671158;86;21378;-56
2023/04/01 02:37:10;;;;;;;18.02;7.20;;;;;;;7.46;64.77;99740.08;1670906;86;21348;-57
2023/04/01 02:40:17;;;;;;;14.33;7.00;;;;;;;7.51;64.86;99737.69;1644469;86;21243;-57
2023/04/01 02:43:24;;;;;;;16.48;6.33;;;;;;;7.55;64.88;99739.03;1670899;84;21220;-57
2023/04/01 02:46:30;;;;;;;14.98;6.97;;;;;;;7.56;64.82;99749.42;1671041;84;21244;-57
2023/04/01 02:49:35;;;;;;;13.65;7.22;;;;;;;7.57;64.87;99742.94;1670926;84;21244;-57
2023/04/01 02:52:42;;;;;;;14.58;6.83;;;;;;;7.58;64.89;99745.99;1671055;86;21228;-57
2023/04/01 02:55:50;;;;;;;16.70;7.87;;;;;;;7.58;64.90;99739.19;1670390;86;21296;-57
2023/04/01 02:58:54;;;;;;;18.92;8.63;;;;;;;7.56;64.93;99738.53;1670575;86;21790;-56
2023/04/01 03:01:59;;;;;;;15.15;8.25;;;;;;;7.52;64.93;99743.97;1670558;84;21252;-56
2023/04/01 03:05:05;;;;;;;14.85;8.65;;;;;;;7.48;65.04;99738.00;1670562;84;21218;-57
2023/04/01 03:08:12;;;;;;;18.67;9.53;;;;;;;7.48;65.13;99739.90;1670420;85;21216;-58
2023/04/01 03:11:21;;;;;;;20.37;9.10;;;;;;;7.49;65.30;99736.14;1670544;86;21250;-57
2023/04/01 03:14:29;;;;;;;19.35;9.63;;;;;;;7.51;65.33;99736.33;1670546;84;21232;-57
2023/04/01 03:17:34;;;;;;;22.27;10.10;;;;;;;7.54;65.45;99739.20;1670557;86;21809;-57
2023/04/01 03:20:42;;;;;;;22.13;10.10;;;;;;;7.52;65.41;99747.55;1670384;86;21287;-58
2023/04/01 03:23:47;;;;;;;18.15;9.15;;;;;;;7.53;65.50;99745.69;1670666;86;21801;-58
2023/04/01 03:26:54;;;;;;;16.55;8.83;;;;;;;7.56;65.62;99749.42;1670941;86;21283;-57
2023/04/01 03:30:00;;;;;;;19.02;9.10;;;;;;;7.54;65.61;99750.09;1670995;86;21208;-56
2023/04/01 03:33:11;;;;;;;20.08;10.20;;;;;;;7.52;65.64;99752.99;1667512;83;21252;-57
2023/04/01 03:36:17;;;;;;;17.25;9.05;;;;;;;7.53;65.77;99762.02;1664797;85;21251;-57
2023/04/01 03:39:25;;;;;;;26.12;10.30;;;;;;;7.55;65.88;99763.54;1664677;85;21224;-58
2023/04/01 03:42:31;;;;;;;20.57;8.78;;;;;;;7.56;65.92;99763.04;1664633;85;21236;-58
2023/04/01 03:45:39;;;;;;;23.12;9.73;;;;;;;7.57;66.05;99761.50;1664569;85;21268;-57
2023/04/01 03:48:46;;;;;;;18.87;9.38;;;;;;;7.58;66.05;99765.91;1664800;85;21232;-57
2023/04/01 03:51:52;;;;;;;28.42;11.43;;;;;;;7.58;66.12;99774.09;1664729;85;21283;-58
2023/04/01 03:54:59;;;;;;;16.30;8.80;;;;;;;7.59;66.19;99777.67;1664513;85;21668;-58
2023/04/01 03:58:07;;;;;;;19.90;8.70;;;;;;;7.60;66.26;99781.59;1664057;86;21688;-57
2023/04/01 04:01:28;;;;;;;17.80;8.65;;;;;;;7.62;66.31;99785.50;1647164;86;21255;-56
2023/04/01 04:04:33;;;;;;;21.12;8.90;;;;;;;7.63;66.42;99788.05;1664135;86;21212;-57
2023/04/01 04:07:41;;;;;;;20.48;10.80;;;;;;;7.64;66.39;99788.91;1664160;86;21829;-57
2023/04/01 04:10:46;;;;;;;20.30;9.68;;;;;;;7.57;66.27;99792.83;1648650;86;21772;-56
2023/04/01 04:13:53;;;;;;;23.38;9.80;;;;;;;7.55;66.37;99802.17;1664368;86;21280;-57
2023/04/01 04:16:52;;;;;;;22.62;10.25;;;;;;;7.55;66.44;99801.66;1664026;86;22201;-57
2023/04/01 04:19:58;;;;;;;22.52;10.35;;;;;;;7.57;66.50;99797.41;1671836;86;21216;-57
2023/04/01 04:23:05;;;;;;;19.35;10.28;;;;;;;7.53;66.46;99794.17;1664101;86;21354;-57
2023/04/01 04:26:16;;;;;;;20.52;10.60;;;;;;;7.54;66.61;99794.53;1663978;85;21232;-57
2023/04/01 04:29:24;;;;;;;21.25;11.80;;;;;;;7.56;66.69;99799.27;1671959;86;21215;-57
2023/04/01 04:32:31;;;;;;;25.02;11.83;;;;;;;7.56;66.69;99803.36;1664883;85;21236;-56
2023/04/01 04:35:37;;;;;;;28.35;11.70;;;;;;;7.54;66.77;99804.06;1690144;84;21302;-56
2023/04/01 04:38:43;;;;;;;27.85;12.88;;;;;;;7.51;66.78;99804.41;1697078;83;21235;-57
2023/04/01 04:41:49;;;;;;;25.37;12.73;;;;;;;7.52;66.83;99807.95;1689829;84;21749;-56
2023/04/01 04:44:56;;;;;;;31.50;14.18;;;;;;;7.48;66.83;99806.08;1696002;83;21215;-57
2023/04/01 04:48:03;;;;;;;30.60;13.95;;;;;;;7.44;66.85;99807.95;1671932;83;21227;-58
2023/04/01 04:51:09;;;;;;;29.98;15.28;;;;;;;7.43;67.02;99807.12;1633973;88;21265;-58
2023/04/01 04:54:16;;;;;;;30.43;15.75;;;;;;;7.46;67.10;99812.73;1633955;86;21241;-57
2023/04/01 04:57:24;;;;;;;29.75;14.70;;;;;;;7.50;67.33;99816.30;1676707;85;21346;-58
2023/04/01 05:00:29;;;;;;;34.25;15.20;;;;;;;7.55;67.44;99815.28;1692011;83;21220;-58
2023/04/01 05:03:40;;;;;;;30.40;16.10;;;;;;;7.64;67.57;99817.51;1705832;83;21280;-58
2023/04/01 05:06:47;;;;;;;49.53;20.75;;;;;;;7.74;67.66;99813.25;1688807;83;21210;-58
2023/04/01 05:09:52;;;;;;;36.53;18.23;;;;;;;7.78;67.59;99809.14;1686966;85;21268;-57
2023/04/01 05:12:58;;;;;;;30.62;17.00;;;;;;;7.81;67.57;99815.60;1705949;84;21778;-58
2023/04/01 05:16:05;;;;;;;34.40;17.07;;;;;;;7.83;67.62;99812.20;1668819;85;21216;-57
2023/04/01 05:19:11;;;;;;;37.23;17.75;;;;;;;7.83;67.62;99810.84;1689977;84;21299;-57
2023/04/01 05:22:16;;;;;;;34.90;15.78;;;;;;;7.90;67.81;99811.83;1693912;83;21222;-58
2023/04/01 05:25:22;;;;;;;30.43;15.98;;;;;;;7.90;67.63;99815.42;1689657;83;21800;-59
2023/04/01 05:28:28;;;;;;;33.92;15.93;;;;;;;7.88;67.69;99817.99;1646234;86;21256;-57
2023/04/01 05:31:35;;;;;;;34.55;17.42;;;;;;;7.89;67.74;99810.14;1649289;85;21328;-57
2023/04/01 05:34:42;;;;;;;39.70;19.37;;;;;;;7.88;67.78;99819.36;1692285;83;21259;-58
2023/04/01 05:37:49;;;;;;;38.00;19.12;;;;;;;7.91;67.84;99811.69;1666063;86;21232;-58
2023/04/01 05:40:57;;;;;;;36.55;18.77;;;;;;;7.94;67.90;99816.80;1659954;86;21252;-57
2023/04/01 05:44:04;;;;;;;33.78;19.77;;;;;;;8.02;68.10;99821.38;1698214;83;21215;-58
2023/04/01 05:47:28;;;;;;;39.73;20.12;;;;;;;8.11;68.18;99826.63;1653345;85;21248;-58
2023/04/01 05:50:34;;;;;;;40.70;19.55;;;;;;;8.19;68.13;99821.66;1665483;86;21201;-57
2023/04/01 05:53:40;;;;;;;39.35;20.20;;;;;;;8.23;68.19;99832.61;1663516;86;21228;-57
2023/04/01 05:56:48;;;;;;;39.27;20.25;;;;;;;8.29;68.24;99834.63;1666331;85;21256;-57
2023/04/01 05:59:54;;;;;;;55.63;28.15;;;;;;;8.34;68.21;99830.88;1656864;86;21213;-57
2023/04/01 06:03:09;;;;;;;61.08;29.85;;;;;;;8.30;68.11;99844.00;1656864;86;21189;-57
2023/04/01 06:06:29;;;;;;;47.25;23.22;;;;;;;8.30;68.28;99845.36;1654572;85;21386;-58
2023/04/01 06:09:37;;;;;;;43.17;20.43;;;;;;;8.35;68.38;99847.56;1643581;85;21232;-57
2023/04/01 06:13:05;;;;;;;46.15;21.00;;;;;;;8.34;68.40;99846.70;1642123;86;21217;-58
2023/04/01 06:16:34;;;;;;;39.78;20.30;;;;;;;8.36;68.53;99846.52;1649502;85;21217;-57
2023/04/01 06:20:17;;;;;;;43.35;20.32;;;;;;;8.41;68.66;99857.77;1656832;85;21346;-58
2023/04/01 06:23:33;;;;;;;39.10;20.75;;;;;;;8.45;68.67;99858.59;1678363;84;21235;-58
2023/04/01 06:26:55;;;;;;;44.30;20.55;;;;;;;8.49;68.76;99855.02;1680167;85;21203;-57
2023/04/01 06:30:40;;;;;;;37.47;21.90;;;;;;;8.57;68.83;99859.08;1685050;85;21196;-58
2023/04/01 06:34:06;;;;;;;37.78;21.42;;;;;;;8.63;68.89;99858.37;1647586;86;22005;-58
2023/04/01 06:37:35;;;;;;;40.88;21.00;;;;;;;8.68;68.86;99861.42;1654676;83;21276;-57
2023/04/01 06:41:01;;;;;;;46.77;24.50;;;;;;;8.70;68.90;99860.74;1637572;86;21785;-57
2023/04/01 06:44:31;;;;;;;41.53;20.80;;;;;;;8.68;68.77;99866.38;1640637;85;21951;-58
2023/04/01 06:48:12;;;;;;;37.85;19.87;;;;;;;8.65;68.74;99865.88;1666061;86;21244;-58
2023/04/01 06:52:04;;;;;;;39.40;22.25;;;;;;;8.61;68.83;99872.72;1637440;87;21394;-58
2023/04/01 06:55:51;;;;;;;42.60;22.35;;;;;;;8.58;68.89;99876.64;1643428;86;21257;-58
2023/04/01 06:59:25;;;;;;;39.60;20.95;;;;;;;8.62;69.15;99864.87;1662694;86;21229;-58
2023/04/01 07:02:37;;;;;;;40.90;22.05;;;;;;;8.68;69.32;99861.42;1638664;86;21290;-58
2023/04/01 07:05:43;;;;;;;52.08;23.77;;;;;;;8.71;69.35;99866.02;1638549;86;21299;-58
2023/04/01 07:08:53;;;;;;;41.63;22.07;;;;;;;8.73;69.26;99864.48;1638913;87;21228;-58
2023/04/01 07:12:27;;;;;;;51.45;24.72;;;;;;;8.71;69.30;99867.89;1586890;90;21278;-58
2023/04/01 07:15:53;;;;;;;;;;;;;;;8.73;69.28;99872.67;1641332;86;21300;-58
2023/04/01 07:19:10;;;;;;;50.50;24.65;;;;;;;8.69;69.35;99875.39;1644220;86;20641;-58
2023/04/01 07:22:30;;;;;;;42.65;23.00;;;;;;;8.73;69.46;99876.76;1664109;85;21573;-58
2023/04/01 07:25:53;;;;;;;46.13;23.90;;;;;;;8.71;69.43;99877.44;1627222;87;21249;-57
2023/04/01 07:29:20;;;;;;;48.50;25.52;;;;;;;8.71;69.52;99872.84;1638974;87;21299;-59
2023/04/01 07:32:48;;;;;;;48.33;25.70;;;;;;;8.72;69.52;99873.70;1636082;86;21296;-57
2023/04/01 07:36:23;;;;;;;53.50;25.82;;;;;;;8.74;69.64;99878.45;1639681;86;21378;-58
2023/04/01 07:39:52;;;;;;;54.13;25.68;;;;;;;8.77;69.74;99882.19;1713435;83;21438;-57
2023/04/01 07:43:20;;;;;;;50.55;27.65;;;;;;;8.85;69.91;99887.11;1684865;85;21281;-56
2023/04/01 07:47:01;;;;;;;69.30;34.35;;;;;;;8.93;69.98;99885.71;1676998;85;21217;-56
2023/04/01 07:50:49;;;;;;;50.90;28.47;;;;;;;8.95;69.97;99895.09;1684107;85;21391;-56
2023/04/01 07:54:27;;;;;;;51.85;28.35;;;;;;;9.01;70.11;99893.00;1684204;85;21221;-58
2023/04/01 07:57:47;;;;;;;50.00;28.57;;;;;;;8.97;69.97;99894.41;1683895;85;21253;-58
2023/04/01 08:01:23;;;;;;;52.10;27.13;;;;;;;8.98;70.13;99897.45;1641597;84;21244;-57
2023/04/01 08:05:03;;;;;;;53.30;26.87;;;;;;;9.04;70.24;99891.28;1684094;85;21473;-56
2023/04/01 08:08:35;;;;;;;57.20;29.30;;;;;;;9.14;70.41;99887.83;1684098;83;21224;-58
2023/04/01 08:12:11;;;;;;;53.28;29.12;;;;;;;9.28;70.47;99893.89;1684516;85;21309;-58
2023/04/01 08:15:41;;;;;;;48.10;27.60;;;;;;;9.39;70.46;99896.75;1685769;84;21285;-57
2023/04/01 08:19:09;;;;;;;55.88;29.12;;;;;;;9.49;70.47;99889.15;1678339;84;21336;-57
2023/04/01 08:22:37;;;;;;;52.35;28.23;;;;;;;9.52;70.32;99891.02;1678173;84;21753;-57
2023/04/01 08:25:49;;;;;;;49.13;28.17;;;;;;;9.63;70.47;99892.46;1671838;84;21212;-58
2023/04/01 08:29:07;;;;;;;48.98;27.98;;;;;;;9.68;70.32;99890.90;1681589;85;21204;-57
2023/04/01 08:32:17;;;;;;;;;;;;;;;9.70;70.33;99898.41;1684442;84;21843;-58
2023/04/01 08:35:44;;;;;;;47.93;26.00;;;;;;;9.79;70.41;99905.50;1680703;84;20219;-58
2023/04/01 08:39:05;;;;;;;50.33;28.75;;;;;;;9.91;70.63;99906.77;1679721;85;21813;-59
2023/04/01 08:42:43;;;;;;;45.65;27.15;;;;;;;10.00;70.61;99912.52;1678835;83;21221;-58
2023/04/01 08:46:21;;;;;;;49.13;28.47;;;;;;;10.13;70.67;99914.12;1675699;85;21309;-59
2023/04/01 08:49:40;;;;;;;49.05;27.93;;;;;;;10.09;70.27;99916.05;1676154;85;21229;-58
2023/04/01 08:53:06;;;;;;;47.80;26.82;;;;;;;10.03;70.37;99919.49;1675300;85;21273;-58
2023/04/01 08:56:40;;;;;;;49.20;28.90;;;;;;;10.09;70.54;99921.02;1676308;85;21222;-58
2023/04/01 09:00:21;;;;;;;39.42;23.80;;;;;;;10.16;70.54;99914.30;1676245;85;21245;-58
2023/04/01 09:03:49;;;;;;;44.88;27.55;;;;;;;10.15;70.51;99918.91;1645684;86;21782;-58
2023/04/01 09:07:09;;;;;;;50.33;27.70;;;;;;;10.24;70.67;99922.43;1657726;85;21221;-59
2023/04/01 09:10:46;;;;;;;53.85;29.95;;;;;;;10.22;70.47;99917.66;1677671;85;21269;-58
2023/04/01 09:14:23;;;;;;;51.15;28.47;;;;;;;10.21;70.54;99920.89;1662843;85;21395;-57
2023/04/01 09:17:41;;;;;;;46.15;28.25;;;;;;;10.16;70.46;99928.80;1578577;90;21311;-58
2023/04/01 09:21:18;;;;;;;52.03;30.08;;;;;;;10.05;70.41;99929.20;1655351;85;21225;-58
2023/04/01 09:24:50;;;;;;;47.45;28.45;;;;;;;9.98;70.51;99927.39;1677353;85;21293;-59
2023/04/01 09:28:18;;;;;;;47.60;28.20;;;;;;;9.93;70.67;99927.94;1677164;85;21282;-58
2023/04/01 09:31:32;;;;;;;45.00;28.62;;;;;;;9.91;70.77;99934.10;1677458;85;21297;-59
2023/04/01 09:35:24;;;;;;;49.23;30.45;;;;;;;9.89;70.80;99934.83;1677585;85;21278;-58
2023/04/01 09:38:47;;;;;;;49.98;31.30;;;;;;;9.90;70.96;99937.02;1678124;84;21366;-58
2023/04/01 09:42:04;;;;;;;50.88;29.07;;;;;;;9.98;71.16;99937.82;1680177;85;21225;-58
2023/04/01 09:45:44;;;;;;;50.50;31.42;;;;;;;10.03;71.14;99929.92;1678944;85;21368;-58
2023/04/01 09:49:13;;;;;;;48.52;28.62;;;;;;;10.03;71.16;99926.33;1679705;85;21348;-57
2023/04/01 09:52:37;;;;;;;44.48;26.75;;;;;;;10.20;71.38;99927.41;1679669;84;21228;-58
2023/04/01 09:56:25;;;;;;;39.38;25.52;;;;;;;10.39;71.44;99930.99;1679826;85;21260;-57
2023/04/01 09:59:54;;;;;;;39.23;24.75;;;;;;;10.52;71.38;99931.21;1675763;84;21232;-58
2023/04/01 10:04:00;;;;;;;37.75;26.25;;;;;;;10.61;71.36;99925.66;1645445;85;21436;-58
2023/04/01 10:07:39;;;;;;;38.38;24.63;;;;;;;10.65;71.45;99927.83;1677537;84;21759;-58
2023/04/01 10:11:15;;;;;;;44.18;24.75;;;;;;;10.66;71.32;99927.28;1676665;85;21241;-58
2023/04/01 10:14:29;;;;;;;38.50;26.10;;;;;;;10.65;71.47;99918.75;1676883;85;21214;-58
2023/04/01 10:17:57;;;;;;;42.05;25.27;;;;;;;10.73;71.59;99911.83;1676071;85;21600;-58
2023/04/01 10:21:24;;;;;;;35.40;22.98;;;;;;;10.78;71.60;99920.33;1676467;84;21317;-58
2023/04/01 10:24:52;;;;;;;35.92;25.05;;;;;;;10.84;71.68;99915.46;1676772;85;21222;-59
2023/04/01 10:28:20;;;;;;;31.10;22.55;;;;;;;10.83;71.58;99905.56;1676818;85;21228;-58
2023/04/01 10:31:55;;;;;;;36.85;24.10;;;;;;;10.90;71.72;99908.72;1673469;85;21237;-59
2023/04/01 10:35:29;;;;;;;34.35;24.67;;;;;;;11.00;71.72;99912.02;1676534;85;21806;-58
2023/04/01 10:38:55;;;;;;;38.45;24.95;;;;;;;11.10;71.83;99904.88;1676959;84;21778;-58
2023/04/01 10:42:27;;;;;;;31.52;22.77;;;;;;;11.20;71.95;99912.27;1676803;85;21206;-58
2023/04/01 10:46:28;;;;;;;32.42;21.95;;;;;;;11.30;71.91;99916.94;1657177;85;21766;-57
2023/04/01 10:49:57;;;;;;;27.32;18.65;;;;;;;11.41;71.84;99920.04;1660487;85;21230;-59
2023/04/01 10:53:58;;;;;;;28.50;19.52;;;;;;;11.21;71.33;99916.18;1683700;85;21787;-57
2023/04/01 10:57:50;;;;;;;27.00;18.30;;;;;;;11.06;71.33;99921.35;1675388;85;21336;-58
2023/04/01 11:01:42;;;;;;;26.95;17.73;;;;;;;10.94;71.61;99917.41;1649241;85;21266;-58
2023/04/01 11:05:34;;;;;;;30.40;20.57;;;;;;;11.00;71.79;99909.28;1649813;86;21426;-59
2023/04/01 11:09:25;;;;;;;27.62;19.10;;;;;;;10.94;71.69;99906.45;1689184;84;21224;-57
2023/04/01 11:13:27;;;;;;;28.12;18.98;;;;;;;10.95;71.85;99906.26;1687352;83;21192;-57
2023/04/01 11:16:56;;;;;;;22.82;16.32;;;;;;;11.09;71.99;99900.42;1656624;85;21299;-57
2023/04/01 11:20:33;;;;;;;22.73;16.87;;;;;;;11.25;72.01;99896.10;1649607;85;21283;-58
2023/04/01 11:24:28;;;;;;;23.12;16.20;;;;;;;11.18;71.74;99897.93;1649498;86;21219;-58
2023/04/01 11:28:13;;;;;;;23.05;16.75;;;;;;;11.13;71.79;99897.66;1683641;85;21247;-58
2023/04/01 11:31:56;;;;;;;24.72;16.40;;;;;;;11.32;72.04;99901.16;1661279;85;21378;-59
2023/04/01 11:35:28;;;;;;;24.70;16.90;;;;;;;11.49;72.11;99903.98;1677027;85;21210;-58
2023/04/01 11:38:55;;;;;;;19.15;13.88;;;;;;;11.50;71.93;99897.45;1675660;85;21564;-59
2023/04/01 11:42:44;;;;;;;19.55;14.33;;;;;;;11.55;71.89;99889.50;1616855;86;21841;-57
2023/04/01 11:47:02;;;;;;;20.70;13.15;;;;;;;11.56;71.65;99894.79;1843582;76;22251;-57
2023/04/01 11:50:35;;;;;;;18.92;13.35;;;;;;;11.47;71.65;99897.33;1785798;80;21193;-59
2023/04/01 11:54:01;;;;;;;19.12;11.83;;;;;;;11.40;71.69;99896.94;1772964;79;21197;-58
2023/04/01 11:57:53;;;;;;;20.02;11.75;;;;;;;11.37;71.72;99902.27;1787935;79;21706;-57
2023/04/01 12:01:29;;;;;;;13.75;10.43;;;;;;;11.40;71.88;99903.78;1781390;79;21201;-58
2023/04/01 12:04:44;;;;;;;16.75;10.68;;;;;;;11.47;71.81;99897.84;1787435;79;21191;-58
2023/04/01 12:08:09;;;;;;;14.90;11.25;;;;;;;11.32;71.58;99900.61;1785493;79;21751;-57
2023/04/01 12:11:26;;;;;;;15.08;10.90;;;;;;;11.18;71.56;99903.41;1777013;79;21268;-58
2023/04/01 12:14:56;;;;;;;14.98;10.85;;;;;;;11.09;71.65;99899.05;1778868;79;21209;-58
2023/04/01 12:18:47;;;;;;;17.90;11.63;;;;;;;10.99;71.65;99902.63;1788045;79;21228;-58
2023/04/01 12:22:13;;;;;;;16.70;12.23;;;;;;;10.90;71.80;99906.48;1771888;79;21250;-57
2023/04/01 12:25:39;;;;;;;15.18;10.78;;;;;;;10.93;72.05;99908.84;1770709;80;21191;-58
2023/04/01 12:29:12;;;;;;;17.27;11.78;;;;;;;11.07;72.24;99896.51;1769337;79;21226;-58
2023/04/01 12:33:04;;;;;;;19.47;12.63;;;;;;;11.36;72.44;99894.23;1770008;80;21584;-58
2023/04/01 12:36:51;;;;;;;17.32;11.10;;;;;;;11.58;72.28;99889.11;1768510;80;21593;-57
2023/04/01 12:40:31;;;;;;;17.37;12.40;;;;;;;11.80;72.23;99892.22;1781511;79;21786;-58
2023/04/01 12:44:17;;;;;;;18.00;13.03;;;;;;;11.85;71.98;99895.23;1795951;79;21793;-59
2023/04/01 12:47:36;;;;;;;18.27;13.90;;;;;;;11.86;71.90;99898.33;1769977;79;21220;-59
2023/04/01 12:51:26;;;;;;;20.37;14.35;;;;;;;12.01;72.01;99899.95;1788038;79;21264;-57
2023/04/01 12:54:52;;;;;;;19.50;15.08;;;;;;;12.08;71.82;99904.64;1771197;79;21286;-58
2023/04/01 12:58:33;;;;;;;20.30;15.13;;;;;;;12.01;71.59;99905.95;1770841;79;21232;-57
2023/04/01 13:01:50;;;;;;;20.40;14.87;;;;;;;11.91;71.48;99907.64;1771463;79;21268;-58
2023/04/01 13:05:27;;;;;;;21.12;15.85;;;;;;;11.64;71.32;99907.55;1777390;79;21309;-58
2023/04/01 13:09:00;;;;;;;25.12;16.30;;;;;;;11.46;71.50;99913.46;1770750;80;21185;-58
2023/04/01 13:12:29;;;;;;;22.13;16.05;;;;;;;11.30;71.57;99912.82;1769480;80;21267;-58
2023/04/01 13:15:40;;;;;;;22.07;15.58;;;;;;;11.15;71.71;99914.72;1769988;80;21773;-58
2023/04/01 13:19:11;;;;;;;19.80;15.48;;;;;;;11.11;71.87;99920.27;1769437;81;21718;-58
2023/04/01 13:22:38;;;;;;;24.18;14.53;;;;;;;11.11;71.96;99905.20;1774015;79;21261;-59
2023/04/01 13:26:11;;;;;;;20.52;14.75;;;;;;;11.12;71.97;99913.73;1779577;79;21257;-58
2023/04/01 13:29:28;;;;;;;20.48;15.38;;;;;;;11.15;72.00;99908.73;1785841;79;21845;-57
2023/04/01 13:33:06;;;;;;;19.82;15.13;;;;;;;11.16;72.02;99912.33;1800357;79;21182;-58
2023/04/01 13:36:26;;;;;;;16.80;13.08;;;;;;;11.08;71.91;99904.22;1800935;78;21742;-58
2023/04/01 13:39:49;;;;;;;21.40;14.33;;;;;;;11.02;72.01;99903.61;1769988;80;21166;-57
2023/04/01 13:43:09;;;;;;;;;;;;;;;10.96;72.04;99907.09;1772985;81;21188;-57
2023/04/01 13:46:33;;;;;;;23.65;16.57;;;;;;;10.98;72.24;99902.28;1758350;80;20213;-57
2023/04/01 13:50:13;;;;;;;21.02;14.00;;;;;;;10.99;72.33;99902.09;1770170;80;21316;-57
2023/04/01 13:53:35;;;;;;;19.92;13.85;;;;;;;11.01;72.33;99909.60;1772580;80;21186;-58
2023/04/01 13:57:19;;;;;;;23.87;14.73;;;;;;;10.98;72.33;99909.13;1770773;80;21244;-57
2023/04/01 14:01:05;;;;;;;30.85;16.17;;;;;;;10.98;72.30;99920.08;1769659;81;21185;-57
2023/04/01 14:04:41;;;;;;;30.23;14.87;;;;;;;10.85;72.18;99908.42;1771029;80;21189;-56
2023/04/01 14:07:57;;;;;;;29.20;15.63;;;;;;;10.70;72.15;99913.06;1786072;79;21499;-56
2023/04/01 14:11:42;;;;;;;33.53;17.60;;;;;;;10.58;72.22;99915.41;1770692;80;21569;-57
2023/04/01 14:15:06;;;;;;;42.85;19.73;;;;;;;10.48;72.42;99916.19;1767089;79;21213;-57
2023/04/01 14:18:26;;;;;;;56.33;23.45;;;;;;;10.46;72.54;99906.48;1770025;80;21264;-56
2023/04/01 14:21:51;;;;;;;48.25;21.85;;;;;;;10.42;72.61;99910.09;1761814;80;21216;-59
2023/04/01 14:25:08;;;;;;;60.92;26.05;;;;;;;10.35;72.54;99910.50;1762965;80;21194;-59
2023/04/01 14:28:46;;;;;;;70.32;29.05;;;;;;;10.27;72.57;99915.22;1786318;79;21323;-59
2023/04/01 14:32:15;;;;;;;68.75;31.02;;;;;;;10.19;72.66;99906.58;1802023;78;21244;-58
2023/04/01 14:35:47;;;;;;;47.95;24.05;;;;;;;10.11;72.80;99908.52;1800995;79;21298;-58
2023/04/01 14:39:17;;;;;;;47.43;25.62;;;;;;;10.04;72.88;99903.41;1769051;80;21715;-57
2023/04/01 14:42:50;;;;;;;38.48;21.85;;;;;;;9.97;73.02;99901.09;1771607;79;21216;-57
2023/04/01 14:46:11;;;;;;;33.10;20.43;;;;;;;9.94;73.11;99906.93;1772754;79;21229;-57
2023/04/01 14:49:49;;;;;;;35.80;22.15;;;;;;;9.85;73.12;99904.77;1759928;81;21292;-57
2023/04/01 14:53:28;;;;;;;54.15;31.50;;;;;;;9.79;73.18;99904.64;1757874;81;21193;-57
2023/04/01 14:56:51;;;;;;;44.65;24.20;;;;;;;9.73;73.31;99899.41;1734857;82;21271;-57
2023/04/01 15:00:07;;;;;;;35.25;22.55;;;;;;;9.70;73.42;99897.05;1791163;79;21789;-58
2023/04/01 15:03:26;;;;;;;36.55;21.65;;;;;;;9.64;73.46;99895.55;1773669;79;21166;-58
2023/04/01 15:07:10;;;;;;;40.35;21.85;;;;;;;9.64;73.59;99903.75;1761894;79;21186;-58
2023/04/01 15:10:46;;;;;;;39.18;23.02;;;;;;;9.59;73.59;99893.37;1773112;79;21189;-58
2023/04/01 15:14:29;;;;;;;38.50;21.68;;;;;;;9.55;73.62;99902.94;1801316;79;21190;-58
2023/04/01 15:17:52;;;;;;;43.35;22.40;;;;;;;9.53;73.72;99900.89;1773574;79;21197;-56
2023/04/01 15:21:25;;;;;;;42.25;22.05;;;;;;;9.54;73.82;99906.72;1735165;82;21217;-58
2023/04/01 15:24:54;;;;;;;42.62;21.57;;;;;;;9.54;73.86;99908.59;1738840;82;21202;-58
2023/04/01 15:28:15;;;;;;;48.90;21.52;;;;;;;9.52;73.88;99916.11;1725563;82;21232;-57
2023/04/01 15:31:36;;;;;;;39.55;19.80;;;;;;;9.49;73.92;99915.97;1750143;82;21448;-58
2023/04/01 15:35:00;;;;;;;42.98;20.50;;;;;;;9.49;74.02;99915.97;1734440;82;21199;-58
2023/04/01 15:38:32;;;;;;;46.05;21.93;;;;;;;9.48;74.00;99918.88;1750839;81;21198;-57
2023/04/01 15:42:21;;;;;;;44.27;23.33;;;;;;;9.45;74.04;99920.07;1734021;81;21204;-59